createdAt,value
2022-08-26T00:00:08.728Z,1007.661
2022-08-26T00:05:21.270Z,1007.641
2022-08-26T00:10:33.487Z,1007.582
2022-08-26T00:15:45.797Z,1007.544
2022-08-26T00:21:00.792Z,1007.545
2022-08-26T00:26:13.115Z,1007.514
2022-08-26T00:31:25.383Z,1007.513
2022-08-26T00:36:40.703Z,1007.467
2022-08-26T00:41:52.777Z,1007.421
2022-08-26T00:47:07.844Z,1007.408
2022-08-26T00:52:20.178Z,1007.341
2022-08-26T00:57:32.575Z,1007.336
2022-08-26T01:02:46.747Z,1007.358
2022-08-26T01:13:09.757Z,1007.358
2022-08-26T01:18:22.194Z,1007.347
2022-08-26T01:23:34.609Z,1007.393
2022-08-26T01:33:59.383Z,1007.372
2022-08-26T01:39:11.739Z,1007.326
2022-08-26T01:44:24.006Z,1007.285
2022-08-26T01:49:36.442Z,1007.254
2022-08-26T01:54:50.415Z,1007.153
2022-08-26T02:05:13.599Z,1007.187
2022-08-26T02:10:25.941Z,1007.186
2022-08-26T02:15:38.351Z,1007.175
2022-08-26T02:26:02.876Z,1007.118
2022-08-26T02:31:15.479Z,1007.097
2022-08-26T02:41:44.836Z,1007.076
2022-08-26T02:46:52.646Z,1007.029
2022-08-26T02:52:04.793Z,1007.009
2022-08-26T02:57:17.146Z,1006.983
2022-08-26T03:02:29.683Z,1006.969
2022-08-26T03:07:42.497Z,1007.014
2022-08-26T03:12:54.763Z,1006.945
2022-08-26T03:23:19.464Z,1006.827
2022-08-26T03:28:31.825Z,1006.852
2022-08-26T03:33:44.244Z,1006.805
2022-08-26T03:39:05.207Z,1006.754
2022-08-26T03:44:17.697Z,1006.8
2022-08-26T03:49:32.915Z,1006.8
2022-08-26T03:54:45.085Z,1006.753
2022-08-26T03:59:57.433Z,1006.759
2022-08-26T04:05:09.721Z,1006.689
2022-08-26T04:10:31.311Z,1006.657
2022-08-26T04:15:43.958Z,1006.682
2022-08-26T04:20:56.344Z,1006.64
2022-08-26T04:26:08.477Z,1006.692
2022-08-26T04:31:20.903Z,1006.592
2022-08-26T04:36:33.301Z,1006.599
2022-08-26T04:41:45.462Z,1006.577
2022-08-26T04:46:57.760Z,1006.62
2022-08-26T04:52:10.265Z,1006.647
2022-08-26T04:57:22.484Z,1006.637
2022-08-26T05:02:34.917Z,1006.66
2022-08-26T05:07:47.406Z,1006.633
2022-08-26T05:12:59.793Z,1006.756
2022-08-26T05:18:12.237Z,1006.81
2022-08-26T05:23:24.613Z,1006.809
2022-08-26T05:28:37.050Z,1006.813
2022-08-26T05:33:49.488Z,1006.84
2022-08-26T05:39:02.041Z,1006.823
2022-08-26T05:44:14.522Z,1006.844
2022-08-26T05:49:26.830Z,1006.739
2022-08-26T05:54:39.275Z,1006.787
2022-08-26T05:59:51.699Z,1006.792
2022-08-26T06:05:03.934Z,1006.747
2022-08-26T06:10:31.383Z,1006.737
2022-08-26T06:15:28.884Z,1006.793
2022-08-26T06:20:41.208Z,1006.801
2022-08-26T06:25:53.735Z,1006.747
2022-08-26T06:31:06.319Z,1006.718
2022-08-26T06:36:18.774Z,1006.764
2022-08-26T06:41:30.948Z,1006.75
2022-08-26T06:46:44.258Z,1006.812
2022-08-26T06:51:55.771Z,1006.79
2022-08-26T06:57:07.894Z,1006.758
2022-08-26T07:02:20.716Z,1006.732
2022-08-26T07:07:32.807Z,1006.736
2022-08-26T07:12:47.041Z,1006.725
2022-08-26T07:17:57.788Z,1006.691
2022-08-26T07:23:11.803Z,1006.662
2022-08-26T07:28:23.263Z,1006.649
2022-08-26T07:33:35.678Z,1006.638
2022-08-26T07:38:48.195Z,1006.641
2022-08-26T07:44:00.731Z,1006.568
2022-08-26T07:49:12.865Z,1006.56
2022-08-26T07:54:26.957Z,1006.528
2022-08-26T07:59:37.856Z,1006.513
2022-08-26T08:04:50.520Z,1006.48
2022-08-26T08:10:05.563Z,1006.567
2022-08-26T08:15:15.081Z,1006.532
2022-08-26T08:20:27.459Z,1006.556
2022-08-26T08:25:39.643Z,1006.524
2022-08-26T08:30:51.832Z,1006.502
2022-08-26T08:36:04.216Z,1006.505
2022-08-26T08:41:16.496Z,1006.422
2022-08-26T08:46:29.218Z,1006.348
2022-08-26T08:51:41.659Z,1006.323
2022-08-26T08:56:54.103Z,1006.337
2022-08-26T09:02:06.466Z,1006.303
2022-08-26T09:07:18.825Z,1006.209
2022-08-26T09:12:31.184Z,1006.177
2022-08-26T09:17:43.794Z,1006.213
2022-08-26T09:22:56.122Z,1006.205
2022-08-26T09:28:08.761Z,1006.182
2022-08-26T09:33:21.892Z,1006.19
2022-08-26T09:38:34.677Z,1006.175
2022-08-26T09:43:46.920Z,1006.057
2022-08-26T09:48:59.580Z,1006.029
2022-08-26T09:54:11.896Z,1005.973
2022-08-26T09:59:24.437Z,1005.852
2022-08-26T10:04:36.867Z,1005.65
2022-08-26T10:09:49.276Z,1005.557
2022-08-26T10:15:01.502Z,1005.438
2022-08-26T10:20:15.800Z,1005.337
2022-08-26T10:25:26.237Z,1005.257
2022-08-26T10:30:38.861Z,1005.276
2022-08-26T10:35:51.007Z,1005.234
2022-08-26T10:41:03.270Z,1005.144
2022-08-26T10:46:15.821Z,1005.04
2022-08-26T10:51:27.950Z,1004.944
2022-08-26T10:56:40.377Z,1004.831
2022-08-26T11:01:52.833Z,1004.761
2022-08-26T11:07:05.293Z,1004.758
2022-08-26T11:12:17.597Z,1004.712
2022-08-26T11:17:29.884Z,1004.76
2022-08-26T11:22:47.762Z,1004.657
2022-08-26T11:27:54.581Z,1004.612
2022-08-26T11:33:06.950Z,1004.496
2022-08-26T11:38:19.278Z,1004.927
2022-08-26T11:43:30.550Z,1004.923
2022-08-26T11:48:42.272Z,1004.823
2022-08-26T11:53:54.431Z,1004.681
2022-08-26T11:59:06.524Z,1004.81
2022-08-26T12:04:19.179Z,1004.928
2022-08-26T12:09:31.175Z,1004.953
2022-08-26T12:14:43.291Z,1004.797
2022-08-26T12:25:07.919Z,1005.138
2022-08-26T12:30:20.364Z,1005.042
2022-08-26T12:35:32.806Z,1005.458
2022-08-26T12:40:45.231Z,1005.49
2022-08-26T12:45:57.801Z,1005.466
2022-08-26T12:51:10.192Z,1005.618
2022-08-26T12:56:22.505Z,1005.618
2022-08-26T13:01:34.807Z,1005.641
2022-08-26T13:06:46.990Z,1005.501
2022-08-26T13:11:59.266Z,1005.56
2022-08-26T13:17:11.452Z,1005.662
2022-08-26T13:22:23.813Z,1005.508
2022-08-26T13:27:36.158Z,1005.367
2022-08-26T13:32:48.554Z,1005.339
2022-08-26T13:38:00.824Z,1005.086
2022-08-26T13:43:13.122Z,1004.941
2022-08-26T13:48:28.204Z,1005.044
2022-08-26T13:53:41.544Z,1004.884
2022-08-26T13:58:52.670Z,1004.831
2022-08-26T14:04:05.230Z,1004.855
2022-08-26T14:09:17.490Z,1004.991
2022-08-26T14:14:29.845Z,1005.195
2022-08-26T14:19:42.738Z,1005.751
2022-08-26T14:24:55.130Z,1005.712
2022-08-26T14:30:07.310Z,1006.042
2022-08-26T14:35:19.213Z,1005.888
2022-08-26T14:40:31.389Z,1005.38
2022-08-26T14:45:43.619Z,1004.893
2022-08-26T14:50:55.882Z,1004.822
2022-08-26T14:56:08.204Z,1004.704
2022-08-26T15:01:20.556Z,1004.43
2022-08-26T15:06:32.963Z,1004.317
2022-08-26T15:11:46.444Z,1004.193
2022-08-26T15:16:57.725Z,1003.848
2022-08-26T15:22:10.016Z,1003.563
2022-08-26T15:27:22.347Z,1003.515
2022-08-26T15:32:34.597Z,1003.545
2022-08-26T15:37:46.903Z,1003.62
2022-08-26T15:43:11.561Z,1003.488
2022-08-26T15:48:11.640Z,1003.45
2022-08-26T15:53:24.064Z,1003.413
2022-08-26T15:58:36.331Z,1003.393
2022-08-26T16:03:48.647Z,1003.304
2022-08-26T16:09:00.825Z,1003.283
2022-08-26T16:14:13.169Z,1003.48
2022-08-26T16:19:25.463Z,1003.541
2022-08-26T16:24:37.680Z,1003.448
2022-08-26T16:29:49.883Z,1003.518
2022-08-26T16:35:02.312Z,1003.548
2022-08-26T16:40:14.500Z,1003.553
2022-08-26T16:45:26.667Z,1003.509
2022-08-26T16:50:38.998Z,1003.72
2022-08-26T16:55:51.436Z,1003.781
2022-08-26T17:01:09.632Z,1003.727
2022-08-26T17:06:21.915Z,1003.856
2022-08-26T17:11:34.240Z,1003.875
2022-08-26T17:16:46.550Z,1003.879
2022-08-26T17:21:58.876Z,1003.97
2022-08-26T17:27:11.189Z,1004.054
2022-08-26T17:32:23.424Z,1004.041
2022-08-26T17:37:35.612Z,1003.969
2022-08-26T17:42:48.164Z,1003.816
2022-08-26T17:48:00.481Z,1003.901
2022-08-26T17:53:18.989Z,1003.823
2022-08-26T17:58:25.246Z,1003.768
2022-08-26T18:03:37.462Z,1003.819
2022-08-26T18:08:49.915Z,1003.752
2022-08-26T18:14:02.170Z,1003.718
2022-08-26T18:19:14.529Z,1003.667
2022-08-26T18:24:26.886Z,1003.648
2022-08-26T18:29:43.300Z,1003.676
2022-08-26T18:34:51.853Z,1003.681
2022-08-26T18:40:04.326Z,1003.698
2022-08-26T18:45:16.794Z,1003.611
2022-08-26T18:50:29.094Z,1003.382
2022-08-26T18:55:41.509Z,1003.319
2022-08-26T19:00:53.740Z,1003.368
2022-08-26T19:06:12.129Z,1003.409
2022-08-26T19:11:31.139Z,1003.518
2022-08-26T19:16:36.703Z,1003.725
2022-08-26T19:21:49.082Z,1003.794
2022-08-26T19:27:01.375Z,1003.927
2022-08-26T19:32:13.797Z,1004.083
2022-08-26T19:37:26.106Z,1004.228
2022-08-26T19:42:38.649Z,1004.26
2022-08-26T19:47:50.878Z,1004.277
2022-08-26T19:53:03.253Z,1004.333
2022-08-26T19:58:16.027Z,1004.381
2022-08-26T20:03:28.388Z,1004.378
2022-08-26T20:08:40.690Z,1004.268
2022-08-26T20:13:53.215Z,1004.173
2022-08-26T20:19:05.457Z,1004.14
2022-08-26T20:24:18.005Z,1004.178
2022-08-26T20:29:30.354Z,1004.247
2022-08-26T20:34:42.845Z,1004.282
2022-08-26T20:39:55.282Z,1004.312
2022-08-26T20:45:07.466Z,1004.41
2022-08-26T20:50:20.017Z,1004.492
2022-08-26T20:55:32.240Z,1004.585
2022-08-26T21:00:44.807Z,1004.57
2022-08-26T21:05:57.080Z,1004.607
2022-08-26T21:11:09.523Z,1004.556
2022-08-26T21:16:21.908Z,1004.459
2022-08-26T21:21:34.380Z,1004.341
2022-08-26T21:26:46.761Z,1004.308
2022-08-26T21:31:58.946Z,1004.312
2022-08-26T21:37:16.541Z,1004.305
2022-08-26T21:42:23.640Z,1004.262
2022-08-26T21:47:35.871Z,1004.27
2022-08-26T21:52:48.213Z,1004.37
2022-08-26T21:58:00.616Z,1004.344
2022-08-26T22:03:12.941Z,1004.344
2022-08-26T22:08:28.005Z,1004.376
2022-08-26T22:13:37.686Z,1004.429
2022-08-26T22:18:50.008Z,1004.511
2022-08-26T22:24:02.279Z,1004.374
2022-08-26T22:29:14.698Z,1004.261
2022-08-26T22:34:27.005Z,1004.111
2022-08-26T22:39:39.438Z,1003.93
2022-08-26T22:44:51.968Z,1003.932
2022-08-26T22:50:04.063Z,1003.91
2022-08-26T22:55:16.383Z,1003.723
2022-08-26T23:00:28.965Z,1003.404
2022-08-26T23:05:41.343Z,1003.377
2022-08-26T23:10:53.652Z,1003.345
2022-08-26T23:16:06.055Z,1003.352
2022-08-26T23:21:18.414Z,1003.367
2022-08-26T23:26:31.355Z,1003.775
2022-08-26T23:31:43.879Z,1003.758
2022-08-26T23:36:56.107Z,1003.679
2022-08-26T23:42:08.727Z,1003.717
2022-08-26T23:47:20.971Z,1003.756
2022-08-26T23:52:33.229Z,1003.761
2022-08-26T23:57:45.687Z,1003.724
